Metar z połowy godziny Komunikat METAR ze strony awiacja.imgw.pl Metar G30 EPSC METAR EPSC 231230Z 31009KT 9999 FEW001 SCT040CB 18/13 Q1009 RETSRA =